Shattuc, Illinois
Current Conditions -  °F | °C
As of 6:15 PM on Thursday 27 Nov 2014 (Local Time) from KENL Reporting Station
Clear Clear  
Wind Chill: 18°   Ceiling: Unl
Heat Index: 24°   Visibility: 10mi
Dew Point: 18°   Wind: 5mph
Humidity: 78%   Direction: 340°NNW
Pressure: 30.47"   Gusts: NA
Location:  38.61°N, 89.19°W
Report Text: KENL 280015Z AUTO 34004KT 10SM CLR M04/M08 A3047 RMK AO2 T10441077
Loading
Personal Weather Stations






























Interactive Weather Map New forecast layout! Learn more

10-Day Weather Forecast

Advertisements
Track Severe Weather on mobile